Terminal Aerodrome Forecast
Issued by NWS Memphis, TN

Home | Current Version | Previous Version | Text Only | Print | Product List | Glossary On
Versions: 1 2 3 4 5 6 7 8 9 10 11 12 13 14 15 16 17 18 19 20 21 22 23 24 25 26
000
FTUS44 KMEG 221459 AAB
TAFMEM
TAF AMD
KMEM 221459Z 2215/2312 17010KT 4SM BR VCSH OVC005
     FM221700 17012G18KT P6SM -SHRA SCT004 OVC007
     FM222100 18010G16KT 6SM -SHRA VCTS BKN007 OVC012CB
     FM230200 21008KT 6SM BR VCSH SCT007 OVC010
     FM230600 26006KT P6SM SCT012 OVC080=

USA.gov is the U.S. government's official web portal to all federal, state and local government web resources and services.